Time;durP1;ratioP1;P1;durP2;ratioP2;P2;SDS_P1;SDS_P2;PMS_P1;PMS_P2;Temp;Humidity;BMP_temperature;BMP_pressure;BME280_temperature;BME280_humidity;BME280_pressure;Samples;Min_cycle;Max_cycle;Signal;HPM_P1;HPM_P2
2022/10/25 00:00:59;;;;;;;4.53;0.88;;;;;;;;;;8268928;28;20042;-61
2022/10/25 00:04:59;;;;;;;3.28;1.02;;;;;;;;;;8269497;28;20037;-61
2022/10/25 00:09:00;;;;;;;4.93;1.25;;;;;;;;;;8267048;28;20096;-64
2022/10/25 00:13:00;;;;;;;2.63;0.82;;;;;;;;;;8267135;28;20158;-62
2022/10/25 00:17:00;;;;;;;6.43;1.10;;;;;;;;;;8268317;28;20039;-62
2022/10/25 00:21:03;;;;;;;2.42;0.95;;;;;;;;;;8270046;28;20108;-62
2022/10/25 00:25:04;;;;;;;6.97;1.17;;;;;;;;;;8269931;28;20061;-61
2022/10/25 00:29:05;;;;;;;4.15;1.10;;;;;;;;;;8267470;28;20795;-61
2022/10/25 00:33:05;;;;;;;3.28;1.02;;;;;;;;;;8266511;28;20158;-62
2022/10/25 00:37:05;;;;;;;3.72;1.00;;;;;;;;;;8269387;28;20033;-62
2022/10/25 00:41:06;;;;;;;3.03;1.02;;;;;;;;;;8276513;28;20383;-62
2022/10/25 00:45:15;;;;;;;5.82;1.00;;;;;;;;;;8276073;28;20022;-62
2022/10/25 00:49:17;;;;;;;3.63;1.10;;;;;;;;;;8277809;28;20121;-61
2022/10/25 00:53:21;;;;;;;2.60;0.85;;;;;;;;;;8275535;28;20028;-61
2022/10/25 00:57:26;;;;;;;3.03;0.93;;;;;;;;;;8276200;28;20060;-62
2022/10/25 01:01:27;;;;;;;5.53;1.10;;;;;;;;;;8274091;28;20495;-61
2022/10/25 01:05:41;;;;;;;4.57;1.00;;;;;;;;;;8287429;28;20536;-60
2022/10/25 01:09:41;;;;;;;5.55;1.08;;;;;;;;;;8273019;28;20033;-62
2022/10/25 01:13:42;;;;;;;2.20;0.80;;;;;;;;;;8274550;28;20025;-62
2022/10/25 01:17:57;;;;;;;5.30;1.10;;;;;;;;;;8273646;28;20175;-64
2022/10/25 01:22:00;;;;;;;4.15;1.00;;;;;;;;;;8275023;28;20121;-61
2022/10/25 01:26:13;;;;;;;3.63;1.00;;;;;;;;;;8272804;28;20053;-61
2022/10/25 01:30:33;;;;;;;5.38;1.10;;;;;;;;;;8272113;28;20083;-61
2022/10/25 01:34:40;;;;;;;6.05;1.33;;;;;;;;;;8278556;28;20073;-61
2022/10/25 01:38:46;;;;;;;2.30;0.80;;;;;;;;;;8276116;28;20521;-62
2022/10/25 01:43:06;;;;;;;5.38;1.25;;;;;;;;;;8274656;28;20505;-61
2022/10/25 01:47:16;;;;;;;2.53;1.00;;;;;;;;;;8274459;28;20037;-61
2022/10/25 01:51:16;;;;;;;2.80;1.00;;;;;;;;;;8273153;28;20026;-61
2022/10/25 01:55:17;;;;;;;5.07;1.40;;;;;;;;;;8275996;28;20017;-62
2022/10/25 01:59:24;;;;;;;5.20;0.98;;;;;;;;;;8274403;28;20067;-61
2022/10/25 02:03:39;;;;;;;7.68;1.20;;;;;;;;;;8274129;28;20041;-61
2022/10/25 02:07:49;;;;;;;8.73;1.13;;;;;;;;;;8274573;28;20028;-62
2022/10/25 02:11:50;;;;;;;4.57;1.30;;;;;;;;;;8274826;28;20022;-60
2022/10/25 02:16:06;;;;;;;6.43;1.30;;;;;;;;;;8274620;28;20042;-61
2022/10/25 02:20:07;;;;;;;6.00;1.13;;;;;;;;;;8274020;28;20064;-61
2022/10/25 02:24:09;;;;;;;5.25;1.40;;;;;;;;;;8274633;28;20018;-61
2022/10/25 02:28:11;;;;;;;7.30;1.33;;;;;;;;;;8273169;28;20459;-61
2022/10/25 02:32:12;;;;;;;3.28;1.10;;;;;;;;;;8273840;28;20040;-61
2022/10/25 02:36:18;;;;;;;3.63;1.15;;;;;;;;;;8272743;28;20021;-61
2022/10/25 02:40:18;;;;;;;5.00;1.23;;;;;;;;;;8273856;28;20060;-61
2022/10/25 02:44:19;;;;;;;3.95;1.27;;;;;;;;;;8274127;28;20038;-61
2022/10/25 02:48:19;;;;;;;5.90;1.33;;;;;;;;;;8273664;28;20034;-61
2022/10/25 02:52:19;;;;;;;4.00;1.42;;;;;;;;;;8272470;28;20025;-61
2022/10/25 02:56:20;;;;;;;2.88;1.10;;;;;;;;;;8271482;28;20028;-61
2022/10/25 03:00:20;;;;;;;2.90;1.20;;;;;;;;;;8270179;28;20060;-65
2022/10/25 03:04:20;;;;;;;5.37;1.30;;;;;;;;;;8271851;28;20658;-61
2022/10/25 03:08:21;;;;;;;4.93;1.10;;;;;;;;;;8272459;28;20323;-60
2022/10/25 03:12:21;;;;;;;6.15;1.60;;;;;;;;;;8273219;28;20116;-62
2022/10/25 03:16:21;;;;;;;7.55;1.30;;;;;;;;;;8272732;28;20096;-62
2022/10/25 03:20:22;;;;;;;4.55;1.50;;;;;;;;;;8272068;28;20064;-61
2022/10/25 03:24:22;;;;;;;9.05;1.20;;;;;;;;;;8274055;28;20032;-62
2022/10/25 03:28:22;;;;;;;7.65;1.40;;;;;;;;;;8273136;28;20044;-62
2022/10/25 03:32:23;;;;;;;5.28;1.40;;;;;;;;;;8268311;28;20030;-61
2022/10/25 03:36:23;;;;;;;8.50;1.65;;;;;;;;;;8271247;28;20497;-65
2022/10/25 03:40:23;;;;;;;4.10;1.52;;;;;;;;;;8271614;28;20503;-61
2022/10/25 03:44:23;;;;;;;4.95;1.40;;;;;;;;;;8272204;28;20741;-62
2022/10/25 03:48:24;;;;;;;4.32;1.50;;;;;;;;;;8270762;28;20501;-62
2022/10/25 03:52:24;;;;;;;5.72;1.73;;;;;;;;;;8268952;28;20727;-61
2022/10/25 03:56:24;;;;;;;9.30;1.80;;;;;;;;;;8270590;28;20437;-62
2022/10/25 04:00:24;;;;;;;11.05;1.45;;;;;;;;;;8268708;28;21797;-62
2022/10/25 04:04:25;;;;;;;3.70;1.17;;;;;;;;;;8269424;28;20091;-61
2022/10/25 04:08:25;;;;;;;5.85;1.60;;;;;;;;;;8270258;28;20409;-60
2022/10/25 04:12:25;;;;;;;6.10;1.57;;;;;;;;;;8268065;28;20026;-61
2022/10/25 04:16:25;;;;;;;5.43;1.52;;;;;;;;;;8269663;28;20276;-61
2022/10/25 04:20:26;;;;;;;5.15;1.45;;;;;;;;;;8270349;28;20025;-61
2022/10/25 04:24:26;;;;;;;8.57;1.65;;;;;;;;;;8269761;28;20032;-61
2022/10/25 04:28:26;;;;;;;5.20;1.77;;;;;;;;;;8233282;28;1091830;-61
2022/10/25 04:32:26;;;;;;;6.30;2.20;;;;;;;;;;8271834;28;20124;-60
2022/10/25 04:36:27;;;;;;;8.13;2.10;;;;;;;;;;8268842;28;20549;-62
2022/10/25 04:40:27;;;;;;;6.47;2.15;;;;;;;;;;8272056;28;20494;-61
2022/10/25 04:44:28;;;;;;;8.03;2.43;;;;;;;;;;8270449;28;20049;-61
2022/10/25 04:48:28;;;;;;;8.60;1.80;;;;;;;;;;8268313;28;20123;-62
2022/10/25 04:52:29;;;;;;;8.27;2.17;;;;;;;;;;8270954;28;20092;-62
2022/10/25 04:56:29;;;;;;;6.05;1.67;;;;;;;;;;8268515;28;20022;-61
2022/10/25 05:00:29;;;;;;;5.15;1.60;;;;;;;;;;8269251;28;20197;-61
2022/10/25 05:04:30;;;;;;;7.40;2.20;;;;;;;;;;8271425;28;20030;-63
2022/10/25 05:08:30;;;;;;;9.23;2.08;;;;;;;;;;8268707;28;20288;-61
2022/10/25 05:12:30;;;;;;;7.80;2.20;;;;;;;;;;8268941;28;20112;-60
2022/10/25 05:16:33;;;;;;;6.82;2.05;;;;;;;;;;8270244;28;20040;-62
2022/10/25 05:20:33;;;;;;;8.33;2.27;;;;;;;;;;8269650;28;20018;-61
2022/10/25 05:24:34;;;;;;;8.57;1.88;;;;;;;;;;8273087;28;20036;-61
2022/10/25 05:28:35;;;;;;;9.70;2.28;;;;;;;;;;8276614;28;20373;-61
2022/10/25 05:32:35;;;;;;;9.85;2.10;;;;;;;;;;8276125;28;20034;-60
2022/10/25 05:36:35;;;;;;;9.37;2.30;;;;;;;;;;8274912;28;20071;-61
2022/10/25 05:40:35;;;;;;;9.48;2.80;;;;;;;;;;8275874;28;20052;-61
2022/10/25 05:44:36;;;;;;;8.38;2.47;;;;;;;;;;8275994;28;20478;-61
2022/10/25 05:48:36;;;;;;;11.93;2.85;;;;;;;;;;8274971;28;20116;-62
2022/10/25 05:52:40;;;;;;;12.75;2.63;;;;;;;;;;8274953;28;20026;-62
2022/10/25 05:56:40;;;;;;;;;;;;;;;;;;8273100;28;20026;-61
2022/10/25 06:00:41;;;;;;;7.03;2.75;;;;;;;;;;8272334;28;19921;-61
2022/10/25 06:04:41;;;;;;;6.95;2.78;;;;;;;;;;8273060;28;20036;-61
2022/10/25 06:08:41;;;;;;;7.85;2.40;;;;;;;;;;8273888;28;20057;-62
2022/10/25 06:12:41;;;;;;;5.10;1.98;;;;;;;;;;8272674;28;20147;-65
2022/10/25 06:16:41;;;;;;;5.65;2.10;;;;;;;;;;8275676;28;21517;-61
2022/10/25 06:20:41;;;;;;;6.03;2.53;;;;;;;;;;8274264;28;20454;-61
2022/10/25 06:24:42;;;;;;;10.23;2.35;;;;;;;;;;8273623;28;20018;-62
2022/10/25 06:28:42;;;;;;;11.32;2.80;;;;;;;;;;8274697;28;20100;-61
2022/10/25 06:32:42;;;;;;;9.63;2.70;;;;;;;;;;8273027;28;20076;-62
2022/10/25 06:36:43;;;;;;;8.90;2.55;;;;;;;;;;8272706;28;20129;-61
2022/10/25 06:40:43;;;;;;;8.52;2.80;;;;;;;;;;8274749;28;20013;-62
2022/10/25 06:44:43;;;;;;;14.85;2.50;;;;;;;;;;8273601;28;20084;-61
2022/10/25 06:48:43;;;;;;;8.90;2.80;;;;;;;;;;8271679;28;20037;-60
2022/10/25 06:52:43;;;;;;;11.50;3.15;;;;;;;;;;8272289;28;20017;-61
2022/10/25 06:56:43;;;;;;;12.65;3.03;;;;;;;;;;8273765;28;20014;-67
2022/10/25 07:00:44;;;;;;;6.25;2.95;;;;;;;;;;8273760;28;20065;-61
2022/10/25 07:04:44;;;;;;;13.30;2.57;;;;;;;;;;8273750;28;20062;-61
2022/10/25 07:08:45;;;;;;;12.60;2.65;;;;;;;;;;8274476;28;20026;-61
2022/10/25 07:12:45;;;;;;;4.07;2.05;;;;;;;;;;8273159;28;20025;-61
2022/10/25 07:16:46;;;;;;;8.95;2.05;;;;;;;;;;8267897;28;20044;-61
2022/10/25 07:20:47;;;;;;;5.80;1.90;;;;;;;;;;8270442;28;20029;-62
2022/10/25 07:24:47;;;;;;;9.68;2.47;;;;;;;;;;8270926;28;20034;-62
2022/10/25 07:28:48;;;;;;;9.48;2.28;;;;;;;;;;8270678;28;20088;-62
2022/10/25 07:32:49;;;;;;;5.95;2.67;;;;;;;;;;8270212;28;21058;-62
2022/10/25 07:36:49;;;;;;;8.13;2.25;;;;;;;;;;8270779;28;20060;-62
2022/10/25 07:40:56;;;;;;;5.22;2.17;;;;;;;;;;8271217;28;20140;-62
2022/10/25 07:44:56;;;;;;;9.80;2.67;;;;;;;;;;8272021;28;20681;-61
2022/10/25 07:48:57;;;;;;;10.07;2.33;;;;;;;;;;8270408;28;20139;-62
2022/10/25 07:52:57;;;;;;;6.10;1.80;;;;;;;;;;8272651;28;20071;-61
2022/10/25 07:56:58;;;;;;;9.63;1.85;;;;;;;;;;8271835;28;20017;-61
2022/10/25 08:00:58;;;;;;;5.57;1.80;;;;;;;;;;8271601;28;20755;-61
2022/10/25 08:04:59;;;;;;;8.70;1.80;;;;;;;;;;8271153;28;20033;-61
2022/10/25 08:08:59;;;;;;;8.48;2.03;;;;;;;;;;8270123;28;20125;-61
2022/10/25 08:12:59;;;;;;;4.82;1.80;;;;;;;;;;8271368;28;20135;-61
2022/10/25 08:16:59;;;;;;;5.20;1.67;;;;;;;;;;8269575;28;20490;-63
2022/10/25 08:21:00;;;;;;;5.25;1.65;;;;;;;;;;8269430;28;20056;-61
2022/10/25 08:25:01;;;;;;;7.38;1.90;;;;;;;;;;8270883;28;20026;-62
2022/10/25 08:29:01;;;;;;;3.17;1.60;;;;;;;;;;8269224;28;20726;-61
2022/10/25 08:33:02;;;;;;;6.65;1.60;;;;;;;;;;8270255;28;20101;-60
2022/10/25 08:37:02;;;;;;;8.88;1.77;;;;;;;;;;8271156;28;20180;-61
2022/10/25 08:41:13;;;;;;;5.70;1.57;;;;;;;;;;8269309;28;20025;-62
2022/10/25 08:45:21;;;;;;;6.40;1.50;;;;;;;;;;8270505;28;20666;-62
2022/10/25 08:49:22;;;;;;;4.68;1.60;;;;;;;;;;8268470;28;20076;-60
2022/10/25 08:53:40;;;;;;;4.95;2.03;;;;;;;;;;8267127;28;20096;-61
2022/10/25 08:57:45;;;;;;;3.25;1.23;;;;;;;;;;8268802;28;20033;-61
2022/10/25 09:01:53;;;;;;;2.92;1.40;;;;;;;;;;8273761;28;20038;-62
2022/10/25 09:06:05;;;;;;;3.95;1.40;;;;;;;;;;8274113;28;20029;-61
2022/10/25 09:10:20;;;;;;;4.47;1.30;;;;;;;;;;8272622;28;20028;-61
2022/10/25 09:14:26;;;;;;;4.93;1.30;;;;;;;;;;8273266;28;20021;-61
2022/10/25 09:18:37;;;;;;;4.82;1.40;;;;;;;;;;8274491;28;20364;-61
2022/10/25 09:22:40;;;;;;;3.50;1.48;;;;;;;;;;8273757;28;20874;-61
2022/10/25 09:26:59;;;;;;;4.03;1.58;;;;;;;;;;8274033;28;20214;-62
2022/10/25 09:31:00;;;;;;;5.20;1.50;;;;;;;;;;8272251;28;20037;-61
2022/10/25 09:35:01;;;;;;;5.65;1.98;;;;;;;;;;8269717;28;20037;-61
2022/10/25 09:39:05;;;;;;;7.15;1.73;;;;;;;;;;8266869;28;20025;-61
2022/10/25 09:43:07;;;;;;;5.28;1.75;;;;;;;;;;8263765;28;20018;-61
2022/10/25 09:47:11;;;;;;;10.45;1.85;;;;;;;;;;8253976;28;20107;-60
2022/10/25 09:51:37;;;;;;;6.32;1.67;;;;;;;;;;8259103;28;20643;-61
2022/10/25 09:55:40;;;;;;;2.20;1.38;;;;;;;;;;8261633;28;20030;-60
2022/10/25 09:59:41;;;;;;;6.43;1.73;;;;;;;;;;8260101;28;20446;-60
2022/10/25 10:03:42;;;;;;;3.78;1.48;;;;;;;;;;8259598;28;20568;-60
2022/10/25 10:07:43;;;;;;;5.93;2.15;;;;;;;;;;8260493;28;20152;-61
2022/10/25 10:11:46;;;;;;;6.65;1.90;;;;;;;;;;8259656;28;20168;-60
2022/10/25 10:15:57;;;;;;;8.50;1.93;;;;;;;;;;8261675;28;20438;-61
2022/10/25 10:20:08;;;;;;;3.47;1.40;;;;;;;;;;8259902;28;20041;-60
2022/10/25 10:24:22;;;;;;;4.75;1.40;;;;;;;;;;8260576;28;20494;-61
2022/10/25 10:28:22;;;;;;;6.47;1.70;;;;;;;;;;8258582;28;20028;-61
2022/10/25 10:32:27;;;;;;;5.50;1.60;;;;;;;;;;8259881;28;20506;-61
2022/10/25 10:36:28;;;;;;;4.32;1.50;;;;;;;;;;8260436;28;20260;-60
2022/10/25 10:40:29;;;;;;;4.00;1.00;;;;;;;;;;8258933;28;20549;-61
2022/10/25 10:44:33;;;;;;;10.82;1.25;;;;;;;;;;8259412;28;20036;-60
2022/10/25 10:48:34;;;;;;;6.68;1.33;;;;;;;;;;8260128;28;20030;-61
2022/10/25 10:52:44;;;;;;;4.68;1.25;;;;;;;;;;8259561;28;20021;-61
2022/10/25 10:56:51;;;;;;;4.72;1.70;;;;;;;;;;8260241;28;20026;-60
2022/10/25 11:00:51;;;;;;;3.58;1.30;;;;;;;;;;8258677;28;20088;-61
2022/10/25 11:04:53;;;;;;;3.25;1.80;;;;;;;;;;8259050;28;20507;-61
2022/10/25 11:09:09;;;;;;;5.13;1.80;;;;;;;;;;8260639;28;20321;-61
2022/10/25 11:13:16;;;;;;;3.95;1.80;;;;;;;;;;8262242;28;20748;-60
2022/10/25 11:17:30;;;;;;;3.15;1.90;;;;;;;;;;8264857;28;20426;-61
2022/10/25 11:21:30;;;;;;;;;;;;;;;;;;8262617;28;20068;-62
2022/10/25 11:25:46;;;;;;;4.30;1.73;;;;;;;;;;8266786;28;19914;-61
2022/10/25 11:29:46;;;;;;;4.57;1.20;;;;;;;;;;8268107;28;20026;-61
2022/10/25 11:34:00;;;;;;;2.78;1.33;;;;;;;;;;8266992;28;20778;-62
2022/10/25 11:38:01;;;;;;;;;;;;;;;;;;8269384;28;20588;-61
2022/10/25 11:42:18;;;;;;;2.30;1.00;;;;;;;;;;8266773;28;19917;-61
2022/10/25 11:46:21;;;;;;;2.33;1.48;;;;;;;;;;8267477;28;20060;-62
2022/10/25 11:50:33;;;;;;;7.35;1.55;;;;;;;;;;8267919;28;20119;-62
2022/10/25 11:54:39;;;;;;;3.53;1.48;;;;;;;;;;8268507;28;20455;-61
2022/10/25 11:58:58;;;;;;;3.65;1.55;;;;;;;;;;8266179;28;20118;-63
2022/10/25 12:03:21;;;;;;;4.53;1.50;;;;;;;;;;8267716;28;20050;-63
2022/10/25 12:07:25;;;;;;;8.57;1.63;;;;;;;;;;8267146;28;20044;-62
2022/10/25 12:11:27;;;;;;;4.32;1.50;;;;;;;;;;8267087;28;20076;-63
2022/10/25 12:15:41;;;;;;;3.85;1.42;;;;;;;;;;8265713;28;20138;-62
2022/10/25 12:19:46;;;;;;;3.30;1.55;;;;;;;;;;8268098;28;20040;-63
2022/10/25 12:23:48;;;;;;;2.75;1.40;;;;;;;;;;8266099;28;20094;-62
2022/10/25 12:27:52;;;;;;;3.05;1.17;;;;;;;;;;8267492;28;20076;-62
2022/10/25 12:31:55;;;;;;;3.40;1.30;;;;;;;;;;8265171;28;20034;-62
2022/10/25 12:35:58;;;;;;;3.03;1.33;;;;;;;;;;8270832;28;20036;-63
2022/10/25 12:39:58;;;;;;;2.38;1.00;;;;;;;;;;8273260;28;22456;-62
2022/10/25 12:44:14;;;;;;;2.80;0.80;;;;;;;;;;8274409;28;20028;-59
2022/10/25 12:48:18;;;;;;;2.25;0.70;;;;;;;;;;8271467;28;20040;-60
2022/10/25 12:52:32;;;;;;;1.65;0.70;;;;;;;;;;8272063;28;20497;-61
2022/10/25 12:56:38;;;;;;;1.38;0.68;;;;;;;;;;8270388;28;20030;-62
2022/10/25 13:00:44;;;;;;;1.90;1.15;;;;;;;;;;8273497;28;20869;-60
2022/10/25 13:05:00;;;;;;;2.95;0.80;;;;;;;;;;8272894;28;20028;-61
2022/10/25 13:09:04;;;;;;;5.57;0.90;;;;;;;;;;8272456;28;20029;-61
2022/10/25 13:13:25;;;;;;;2.28;0.70;;;;;;;;;;8270896;28;20071;-61
2022/10/25 13:17:25;;;;;;;1.55;0.80;;;;;;;;;;8271855;28;20041;-61
2022/10/25 13:21:49;;;;;;;1.88;0.70;;;;;;;;;;8272358;28;20125;-61
2022/10/25 13:25:49;;;;;;;1.45;0.70;;;;;;;;;;8277004;28;20046;-61
2022/10/25 13:30:04;;;;;;;7.93;0.70;;;;;;;;;;8268451;28;20040;-60
2022/10/25 13:34:10;;;;;;;1.83;0.60;;;;;;;;;;8262706;28;20145;-60
2022/10/25 13:38:17;;;;;;;1.58;0.70;;;;;;;;;;8259031;28;20109;-61
2022/10/25 13:42:29;;;;;;;3.92;0.90;;;;;;;;;;8260699;28;20022;-60
2022/10/25 13:46:35;;;;;;;2.72;0.82;;;;;;;;;;8257305;28;20119;-62
2022/10/25 13:50:43;;;;;;;3.13;0.80;;;;;;;;;;8263602;28;20437;-61
2022/10/25 13:54:49;;;;;;;2.75;0.85;;;;;;;;;;8260864;28;20518;-61
2022/10/25 13:58:49;;;;;;;5.03;0.68;;;;;;;;;;8261120;28;20053;-61
2022/10/25 14:03:02;;;;;;;2.57;0.90;;;;;;;;;;8261085;28;20045;-61
2022/10/25 14:07:21;;;;;;;3.88;1.00;;;;;;;;;;8260485;28;20280;-62
2022/10/25 14:11:40;;;;;;;2.58;0.80;;;;;;;;;;8260756;28;20092;-61
2022/10/25 14:15:44;;;;;;;3.13;1.00;;;;;;;;;;8261597;28;20110;-60
2022/10/25 14:19:46;;;;;;;3.40;0.90;;;;;;;;;;8259520;28;20037;-61
2022/10/25 14:23:48;;;;;;;2.08;0.80;;;;;;;;;;8260236;28;20025;-61
2022/10/25 14:27:48;;;;;;;3.65;0.70;;;;;;;;;;8259949;28;20447;-61
2022/10/25 14:31:49;;;;;;;4.07;0.80;;;;;;;;;;8257251;28;20038;-61
2022/10/25 14:35:54;;;;;;;1.65;0.88;;;;;;;;;;8261767;28;20047;-60
2022/10/25 14:39:54;;;;;;;3.15;0.82;;;;;;;;;;8259336;28;20053;-60
2022/10/25 14:43:55;;;;;;;2.83;0.88;;;;;;;;;;8262531;28;20210;-60
2022/10/25 14:47:55;;;;;;;2.50;1.00;;;;;;;;;;8260158;28;20065;-60
2022/10/25 14:51:59;;;;;;;1.48;0.73;;;;;;;;;;8259836;28;20957;-60
2022/10/25 14:56:01;;;;;;;3.08;0.85;;;;;;;;;;8260170;28;20335;-60
2022/10/25 15:00:03;;;;;;;3.05;0.80;;;;;;;;;;8258317;28;20289;-60
2022/10/25 15:04:03;;;;;;;1.90;0.80;;;;;;;;;;8258917;28;20033;-60
2022/10/25 15:08:04;;;;;;;3.20;0.77;;;;;;;;;;8258590;28;20469;-61
2022/10/25 15:12:07;;;;;;;3.60;0.80;;;;;;;;;;8253358;28;20442;-60
2022/10/25 15:16:26;;;;;;;4.90;0.98;;;;;;;;;;8258275;28;20499;-61
2022/10/25 15:20:30;;;;;;;2.28;0.75;;;;;;;;;;8258972;28;20018;-60
2022/10/25 15:24:41;;;;;;;3.05;1.00;;;;;;;;;;8258721;28;20033;-61
2022/10/25 15:28:48;;;;;;;2.60;1.00;;;;;;;;;;8264324;28;20461;-60
2022/10/25 15:32:48;;;;;;;1.63;0.90;;;;;;;;;;8267651;28;20056;-61
2022/10/25 15:36:49;;;;;;;2.15;0.75;;;;;;;;;;8268174;28;20450;-60
2022/10/25 15:40:49;;;;;;;2.65;0.85;;;;;;;;;;8265814;28;20079;-61
2022/10/25 15:44:49;;;;;;;2.42;1.00;;;;;;;;;;8268080;28;20705;-61
2022/10/25 15:48:50;;;;;;;4.40;0.80;;;;;;;;;;8266956;28;20133;-60
2022/10/25 15:52:50;;;;;;;3.83;0.85;;;;;;;;;;8267467;28;20297;-61
2022/10/25 15:56:52;;;;;;;6.35;0.93;;;;;;;;;;8267297;28;20030;-61
2022/10/25 16:00:55;;;;;;;2.70;1.20;;;;;;;;;;8265994;28;20041;-61
2022/10/25 16:04:55;;;;;;;4.15;0.90;;;;;;;;;;8267233;28;20061;-62
2022/10/25 16:08:55;;;;;;;2.37;0.90;;;;;;;;;;8267261;28;21384;-61
2022/10/25 16:13:00;;;;;;;1.83;0.80;;;;;;;;;;8266492;28;20523;-62
2022/10/25 16:17:00;;;;;;;1.70;0.80;;;;;;;;;;8266119;28;20061;-67
2022/10/25 16:21:00;;;;;;;2.60;0.83;;;;;;;;;;8267897;28;20895;-60
2022/10/25 16:25:00;;;;;;;5.07;0.75;;;;;;;;;;8266402;28;20025;-60
2022/10/25 16:29:01;;;;;;;1.97;1.13;;;;;;;;;;8268330;28;20045;-61
2022/10/25 16:33:01;;;;;;;1.90;0.98;;;;;;;;;;8262266;28;20389;-60
2022/10/25 16:37:01;;;;;;;3.60;1.00;;;;;;;;;;8267807;28;20045;-61
2022/10/25 16:41:02;;;;;;;2.25;0.70;;;;;;;;;;8266486;28;20120;-60
2022/10/25 16:45:09;;;;;;;1.90;0.93;;;;;;;;;;8265603;28;20034;-61
2022/10/25 16:49:10;;;;;;;3.38;0.90;;;;;;;;;;8266727;28;20217;-60
2022/10/25 16:53:11;;;;;;;2.85;0.90;;;;;;;;;;8265287;28;20134;-61
2022/10/25 16:57:13;;;;;;;5.05;1.00;;;;;;;;;;8267168;28;20022;-61
2022/10/25 17:01:20;;;;;;;2.13;0.80;;;;;;;;;;8265440;28;20394;-61
2022/10/25 17:05:21;;;;;;;2.47;0.80;;;;;;;;;;8267521;28;20694;-65
2022/10/25 17:09:22;;;;;;;3.80;1.02;;;;;;;;;;8266163;28;20148;-60
2022/10/25 17:13:22;;;;;;;4.07;0.93;;;;;;;;;;8266092;28;20554;-61
2022/10/25 17:17:24;;;;;;;8.45;1.20;;;;;;;;;;8264803;28;20546;-61
2022/10/25 17:21:26;;;;;;;9.32;4.78;;;;;;;;;;8269736;28;20120;-60
2022/10/25 17:25:26;;;;;;;15.05;8.85;;;;;;;;;;8270927;28;20499;-61
2022/10/25 17:29:27;;;;;;;12.43;7.87;;;;;;;;;;8269760;28;20033;-60
2022/10/25 17:33:27;;;;;;;6.20;3.78;;;;;;;;;;8271893;28;20597;-60
2022/10/25 17:37:27;;;;;;;8.50;3.70;;;;;;;;;;8272556;28;20795;-60
2022/10/25 17:41:28;;;;;;;9.43;3.28;;;;;;;;;;8274143;28;20922;-61
2022/10/25 17:45:29;;;;;;;7.20;2.80;;;;;;;;;;8272671;28;20140;-60
2022/10/25 17:49:29;;;;;;;5.60;2.50;;;;;;;;;;8271503;28;20823;-62
2022/10/25 17:53:29;;;;;;;4.95;2.15;;;;;;;;;;8272114;28;20013;-61
2022/10/25 17:57:29;;;;;;;6.50;2.00;;;;;;;;;;8268144;28;20025;-61
2022/10/25 18:01:33;;;;;;;3.25;1.67;;;;;;;;;;8271901;28;20269;-60
2022/10/25 18:05:36;;;;;;;2.95;1.60;;;;;;;;;;8270052;28;20122;-62
2022/10/25 18:09:37;;;;;;;5.10;1.83;;;;;;;;;;8272812;28;20152;-63
2022/10/25 18:13:39;;;;;;;5.80;1.60;;;;;;;;;;8270955;28;20123;-60
2022/10/25 18:17:40;;;;;;;4.40;2.00;;;;;;;;;;8271407;28;20164;-61
2022/10/25 18:21:40;;;;;;;3.45;1.27;;;;;;;;;;8270534;28;20057;-61
2022/10/25 18:25:51;;;;;;;6.40;1.15;;;;;;;;;;8269254;28;20032;-61
2022/10/25 18:29:51;;;;;;;3.28;1.05;;;;;;;;;;8272081;28;20034;-62
2022/10/25 18:33:54;;;;;;;3.35;0.93;;;;;;;;;;8269078;28;20785;-61
2022/10/25 18:37:57;;;;;;;3.30;1.20;;;;;;;;;;8266951;28;20026;-60
2022/10/25 18:41:57;;;;;;;4.03;1.30;;;;;;;;;;8259413;28;20108;-60
2022/10/25 18:45:57;;;;;;;2.20;1.20;;;;;;;;;;8260231;28;20061;-60
2022/10/25 18:49:57;;;;;;;2.22;1.10;;;;;;;;;;8260047;28;20466;-61
2022/10/25 18:53:59;;;;;;;4.47;1.15;;;;;;;;;;8259086;28;20026;-60
2022/10/25 18:58:00;;;;;;;3.80;1.25;;;;;;;;;;8258658;28;20057;-61
2022/10/25 19:02:00;;;;;;;2.92;1.05;;;;;;;;;;8258561;28;20156;-60
2022/10/25 19:06:01;;;;;;;1.70;0.82;;;;;;;;;;8252715;28;20057;-60
2022/10/25 19:10:01;;;;;;;4.05;1.20;;;;;;;;;;8253422;28;20553;-60
2022/10/25 19:14:03;;;;;;;2.65;0.98;;;;;;;;;;8255234;28;20298;-61
2022/10/25 19:18:03;;;;;;;3.13;1.20;;;;;;;;;;8256803;28;20118;-60
2022/10/25 19:22:03;;;;;;;2.90;1.30;;;;;;;;;;8258694;28;20520;-60
2022/10/25 19:26:04;;;;;;;2.80;1.38;;;;;;;;;;8256069;28;20029;-60
2022/10/25 19:30:05;;;;;;;3.05;1.15;;;;;;;;;;8256661;28;20041;-60
2022/10/25 19:34:05;;;;;;;4.45;1.30;;;;;;;;;;8256806;28;20808;-60
2022/10/25 19:38:05;;;;;;;1.65;1.40;;;;;;;;;;8258075;28;20060;-60
2022/10/25 19:42:05;;;;;;;3.60;1.30;;;;;;;;;;8257655;28;20030;-60
2022/10/25 19:46:06;;;;;;;3.22;1.40;;;;;;;;;;8255865;28;20113;-60
2022/10/25 19:50:07;;;;;;;3.92;1.38;;;;;;;;;;8255906;28;20025;-60
2022/10/25 19:54:07;;;;;;;5.38;1.90;;;;;;;;;;8255706;28;20275;-60
2022/10/25 19:58:07;;;;;;;4.75;2.20;;;;;;;;;;8257688;28;20037;-60
2022/10/25 20:02:07;;;;;;;9.90;1.75;;;;;;;;;;8254728;28;20303;-60
2022/10/25 20:06:12;;;;;;;4.00;1.75;;;;;;;;;;8256288;28;20033;-60
2022/10/25 20:10:12;;;;;;;4.65;1.30;;;;;;;;;;8255336;28;20377;-60
2022/10/25 20:14:12;;;;;;;6.35;1.55;;;;;;;;;;8257800;28;20025;-60
2022/10/25 20:18:13;;;;;;;5.07;1.70;;;;;;;;;;8257850;28;20041;-60
2022/10/25 20:22:15;;;;;;;3.85;1.60;;;;;;;;;;8255535;28;20059;-60
2022/10/25 20:26:19;;;;;;;4.53;1.60;;;;;;;;;;8257600;28;20928;-60
2022/10/25 20:30:20;;;;;;;4.10;1.95;;;;;;;;;;8255928;28;20047;-60
2022/10/25 20:34:20;;;;;;;5.88;1.92;;;;;;;;;;8256506;28;20700;-60
2022/10/25 20:38:21;;;;;;;6.00;3.20;;;;;;;;;;8256856;28;20029;-60
2022/10/25 20:42:22;;;;;;;7.10;2.72;;;;;;;;;;8255512;28;20313;-60
2022/10/25 20:46:23;;;;;;;6.63;2.25;;;;;;;;;;8257434;28;20044;-60
2022/10/25 20:50:24;;;;;;;9.55;2.03;;;;;;;;;;8253923;28;20399;-59
2022/10/25 20:54:24;;;;;;;7.93;3.15;;;;;;;;;;8255045;28;20030;-60
2022/10/25 20:58:25;;;;;;;6.00;2.05;;;;;;;;;;8260572;28;20056;-60
2022/10/25 21:02:25;;;;;;;5.57;2.03;;;;;;;;;;8262644;28;20123;-61
2022/10/25 21:06:25;;;;;;;5.18;1.70;;;;;;;;;;8263951;28;20025;-60
2022/10/25 21:10:25;;;;;;;3.28;1.50;;;;;;;;;;8262192;28;20409;-60
2022/10/25 21:14:25;;;;;;;4.72;1.70;;;;;;;;;;8264776;28;20080;-60
2022/10/25 21:18:26;;;;;;;6.97;1.67;;;;;;;;;;8262671;28;20056;-60
2022/10/25 21:22:27;;;;;;;7.18;1.98;;;;;;;;;;8264649;28;20811;-60
2022/10/25 21:26:27;;;;;;;14.37;3.93;;;;;;;;;;8264484;28;20534;-60
2022/10/25 21:30:27;;;;;;;28.25;6.68;;;;;;;;;;8263692;28;20493;-60
2022/10/25 21:34:27;;;;;;;15.50;4.75;;;;;;;;;;8264482;28;20052;-60
2022/10/25 21:38:27;;;;;;;17.83;5.35;;;;;;;;;;8264283;28;20021;-60
2022/10/25 21:42:31;;;;;;;14.55;4.00;;;;;;;;;;8264287;28;20432;-60
2022/10/25 21:46:31;;;;;;;19.10;5.57;;;;;;;;;;8264542;28;20033;-60
2022/10/25 21:50:31;;;;;;;16.88;4.85;;;;;;;;;;8265257;28;20186;-61
2022/10/25 21:54:32;;;;;;;27.02;7.18;;;;;;;;;;8260613;28;20415;-60
2022/10/25 21:58:32;;;;;;;12.38;4.00;;;;;;;;;;8266217;28;20558;-60
2022/10/25 22:02:32;;;;;;;7.03;2.90;;;;;;;;;;8263944;28;20112;-60
2022/10/25 22:06:32;;;;;;;18.17;6.20;;;;;;;;;;8260784;28;20541;-60
2022/10/25 22:10:33;;;;;;;9.18;3.72;;;;;;;;;;8263463;28;20095;-60
2022/10/25 22:14:33;;;;;;;9.85;3.63;;;;;;;;;;8259303;28;20662;-60
2022/10/25 22:18:33;;;;;;;11.88;4.18;;;;;;;;;;8265348;28;20125;-60
2022/10/25 22:22:33;;;;;;;9.60;3.47;;;;;;;;;;8274021;28;20032;-61
2022/10/25 22:26:34;;;;;;;12.38;3.92;;;;;;;;;;8265056;28;20371;-61
2022/10/25 22:30:34;;;;;;;17.98;6.10;;;;;;;;;;8262442;28;20045;-61
2022/10/25 22:34:34;;;;;;;16.42;5.57;;;;;;;;;;8263163;28;20026;-63
2022/10/25 22:38:35;;;;;;;27.77;9.25;;;;;;;;;;8263999;28;20171;-61
2022/10/25 22:42:35;;;;;;;30.17;10.53;;;;;;;;;;8262078;28;20222;-61
2022/10/25 22:46:35;;;;;;;24.35;9.68;;;;;;;;;;8262569;28;20198;-61
2022/10/25 22:50:35;;;;;;;16.45;5.38;;;;;;;;;;8262104;28;20104;-61
2022/10/25 22:54:36;;;;;;;17.20;6.40;;;;;;;;;;8262483;28;20353;-61
2022/10/25 22:58:37;;;;;;;30.08;10.20;;;;;;;;;;8261675;28;20052;-61
2022/10/25 23:02:37;;;;;;;47.10;15.98;;;;;;;;;;8260253;28;20033;-61
2022/10/25 23:06:38;;;;;;;37.80;13.82;;;;;;;;;;8260784;28;20477;-61
2022/10/25 23:10:38;;;;;;;23.10;7.15;;;;;;;;;;8261674;28;20703;-61
2022/10/25 23:14:38;;;;;;;9.68;3.25;;;;;;;;;;8262491;28;20080;-61
2022/10/25 23:18:39;;;;;;;7.53;2.10;;;;;;;;;;8259940;28;20382;-61
2022/10/25 23:22:39;;;;;;;6.53;1.80;;;;;;;;;;8260804;28;20078;-61
2022/10/25 23:26:39;;;;;;;7.78;2.13;;;;;;;;;;8261861;28;20116;-61
2022/10/25 23:30:40;;;;;;;4.82;1.95;;;;;;;;;;8262350;28;20528;-61
2022/10/25 23:34:40;;;;;;;7.30;2.30;;;;;;;;;;8261240;28;20025;-62
2022/10/25 23:38:41;;;;;;;7.95;1.90;;;;;;;;;;8262281;28;20594;-61
2022/10/25 23:42:41;;;;;;;6.50;1.75;;;;;;;;;;8261636;28;20014;-61
2022/10/25 23:46:41;;;;;;;7.53;1.80;;;;;;;;;;8262293;28;20104;-61
2022/10/25 23:50:41;;;;;;;6.03;1.90;;;;;;;;;;8261200;28;20060;-61
2022/10/25 23:54:41;;;;;;;9.95;2.28;;;;;;;;;;8258214;28;20049;-58
2022/10/25 23:58:42;;;;;;;5.40;1.90;;;;;;;;;;8262926;28;20479;-58
